Time;durP1;ratioP1;P1;durP2;ratioP2;P2;SDS_P1;SDS_P2;PMS_P1;PMS_P2;Temp;Humidity;BMP_temperature;BMP_pressure;BME280_temperature;BME280_humidity;BME280_pressure;Samples;Min_cycle;Max_cycle;Signal;HPM_P1;HPM_P2
2021/12/20 00:02:01;;;;;;;26.92;11.05;;;;;;;;;;5001317;28;20069;-74
2021/12/20 00:04:27;;;;;;;19.73;8.80;;;;;;;;;;5000910;28;20037;-74
2021/12/20 00:06:52;;;;;;;24.27;9.50;;;;;;;;;;5004235;28;20034;-74
2021/12/20 00:09:18;;;;;;;14.48;6.93;;;;;;;;;;5004886;28;20076;-74
2021/12/20 00:11:43;;;;;;;21.38;9.65;;;;;;;;;;5004299;28;20032;-74
2021/12/20 00:14:09;;;;;;;19.98;8.27;;;;;;;;;;5002578;28;20030;-74
2021/12/20 00:16:34;;;;;;;22.70;11.23;;;;;;;;;;5003854;28;20044;-74
2021/12/20 00:19:00;;;;;;;23.73;10.65;;;;;;;;;;5004662;28;20029;-74
2021/12/20 00:21:26;;;;;;;27.55;11.32;;;;;;;;;;5004139;28;20092;-74
2021/12/20 00:23:52;;;;;;;21.95;10.55;;;;;;;;;;5004512;28;20147;-74
2021/12/20 00:26:17;;;;;;;20.35;10.25;;;;;;;;;;4985550;28;20494;-74
2021/12/20 00:28:43;;;;;;;27.30;12.65;;;;;;;;;;5003214;28;20064;-74
2021/12/20 00:31:08;;;;;;;24.20;10.15;;;;;;;;;;4996948;28;20033;-74
2021/12/20 00:33:34;;;;;;;11.43;6.88;;;;;;;;;;5002909;28;20562;-73
2021/12/20 00:36:07;;;;;;;22.38;10.43;;;;;;;;;;5003104;28;20038;-74
2021/12/20 00:41:18;;;;;;;13.63;6.55;;;;;;;;;;5018897;28;20048;-74
2021/12/20 00:43:43;;;;;;;13.30;7.18;;;;;;;;;;5002706;28;20038;-74
2021/12/20 00:46:09;;;;;;;16.65;7.25;;;;;;;;;;5003114;28;20026;-73
2021/12/20 00:48:34;;;;;;;24.95;10.88;;;;;;;;;;4986080;28;20111;-73
2021/12/20 00:51:00;;;;;;;25.23;11.38;;;;;;;;;;5003769;28;20116;-74
2021/12/20 00:53:25;;;;;;;22.75;10.73;;;;;;;;;;5002515;28;20030;-74
2021/12/20 00:55:51;;;;;;;21.42;10.02;;;;;;;;;;5002552;28;20045;-74
2021/12/20 00:58:17;;;;;;;19.95;8.75;;;;;;;;;;5002916;28;20232;-73
2021/12/20 01:00:46;;;;;;;22.95;10.13;;;;;;;;;;5002082;28;20077;-74
2021/12/20 01:03:12;;;;;;;23.33;11.10;;;;;;;;;;5001796;28;20026;-74
2021/12/20 01:05:38;;;;;;;15.38;8.52;;;;;;;;;;5001905;28;20044;-73
2021/12/20 01:08:06;;;;;;;23.45;11.25;;;;;;;;;;5002084;28;20394;-74
2021/12/20 01:10:33;;;;;;;23.92;10.98;;;;;;;;;;4992605;28;20037;-74
2021/12/20 01:13:00;;;;;;;22.65;10.20;;;;;;;;;;5003230;28;20040;-73
2021/12/20 01:15:32;;;;;;;20.80;9.65;;;;;;;;;;5002184;28;20136;-74
2021/12/20 01:17:58;;;;;;;21.10;10.37;;;;;;;;;;5001826;28;20100;-74
2021/12/20 01:20:24;;;;;;;16.23;8.63;;;;;;;;;;5002252;28;20034;-74
2021/12/20 01:22:51;;;;;;;15.95;8.43;;;;;;;;;;5001695;28;20478;-74
2021/12/20 01:25:17;;;;;;;17.80;9.15;;;;;;;;;;5003227;28;20034;-73
2021/12/20 01:27:43;;;;;;;9.77;5.63;;;;;;;;;;5017508;28;20045;-74
2021/12/20 01:30:11;;;;;;;19.60;8.30;;;;;;;;;;4984647;28;20041;-74
2021/12/20 01:32:37;;;;;;;10.32;5.93;;;;;;;;;;5001573;28;20113;-74
2021/12/20 01:35:04;;;;;;;12.02;6.70;;;;;;;;;;5003144;28;20033;-74
2021/12/20 01:37:29;;;;;;;15.18;7.60;;;;;;;;;;5002741;28;20034;-74
2021/12/20 01:39:58;;;;;;;14.90;7.55;;;;;;;;;;5001801;28;20041;-74
2021/12/20 01:42:24;;;;;;;17.92;8.93;;;;;;;;;;5001351;28;20038;-74
2021/12/20 01:44:50;;;;;;;22.40;10.82;;;;;;;;;;5002712;28;20040;-74
2021/12/20 01:47:16;;;;;;;13.07;6.72;;;;;;;;;;5001602;28;20030;-74
2021/12/20 01:49:58;;;;;;;23.48;11.00;;;;;;;;;;5002803;28;20038;-74
2021/12/20 01:52:26;;;;;;;23.05;10.35;;;;;;;;;;5001903;28;20034;-74
2021/12/20 01:54:53;;;;;;;19.55;8.95;;;;;;;;;;5001238;28;20423;-74
2021/12/20 01:57:20;;;;;;;21.30;10.18;;;;;;;;;;5002761;28;20041;-74
2021/12/20 01:59:46;;;;;;;18.00;8.15;;;;;;;;;;5002502;28;20201;-74
2021/12/20 02:02:11;;;;;;;17.05;7.72;;;;;;;;;;5001992;28;20131;-74
2021/12/20 02:04:45;;;;;;;17.80;9.10;;;;;;;;;;5001583;28;20103;-75
2021/12/20 02:07:29;;;;;;;17.23;8.00;;;;;;;;;;5001861;28;20402;-74
2021/12/20 02:09:55;;;;;;;23.98;10.40;;;;;;;;;;5004965;28;20034;-75
2021/12/20 02:12:20;;;;;;;19.55;9.63;;;;;;;;;;4987779;28;20022;-74
2021/12/20 02:14:46;;;;;;;21.35;9.23;;;;;;;;;;5000385;28;20037;-75
2021/12/20 02:17:14;;;;;;;23.17;11.40;;;;;;;;;;5000633;28;20029;-75
2021/12/20 02:19:39;;;;;;;23.00;9.30;;;;;;;;;;5001112;28;20050;-75
2021/12/20 02:22:05;;;;;;;18.35;7.63;;;;;;;;;;5001912;28;20041;-74
2021/12/20 02:24:30;;;;;;;16.23;7.22;;;;;;;;;;5001416;28;20065;-75
2021/12/20 02:26:55;;;;;;;20.42;11.45;;;;;;;;;;5002404;28;20448;-74
2021/12/20 02:29:27;;;;;;;22.33;9.63;;;;;;;;;;5000956;28;20061;-74
2021/12/20 02:37:28;;;;;;;24.13;11.20;;;;;;;;;;5001053;28;20038;-74
2021/12/20 02:39:54;;;;;;;22.05;10.65;;;;;;;;;;5000618;28;20044;-74
2021/12/20 02:42:25;;;;;;;23.27;10.32;;;;;;;;;;4971598;28;20085;-74
2021/12/20 02:45:05;;;;;;;24.42;11.23;;;;;;;;;;4999777;28;20478;-75
2021/12/20 02:47:31;;;;;;;25.75;12.68;;;;;;;;;;4999316;28;20038;-75
2021/12/20 02:49:57;;;;;;;21.92;11.18;;;;;;;;;;5000422;28;20033;-75
2021/12/20 02:52:23;;;;;;;23.98;10.48;;;;;;;;;;5001327;28;20669;-75
2021/12/20 02:54:49;;;;;;;25.70;11.57;;;;;;;;;;5016364;28;20072;-74
2021/12/20 02:57:15;;;;;;;21.48;9.48;;;;;;;;;;5000249;28;20037;-74
2021/12/20 02:59:41;;;;;;;24.67;10.60;;;;;;;;;;5000755;28;20049;-74
2021/12/20 03:02:10;;;;;;;19.50;9.85;;;;;;;;;;5000186;28;20073;-75
2021/12/20 03:04:36;;;;;;;15.50;8.13;;;;;;;;;;5001592;28;20042;-74
2021/12/20 03:07:08;;;;;;;16.60;7.60;;;;;;;;;;4983517;28;20063;-74
2021/12/20 03:09:36;;;;;;;;;;;;;;;;;;5000938;28;20056;-74
2021/12/20 03:12:03;;;;;;;15.95;6.93;;;;;;;;;;5001081;28;20354;-74
2021/12/20 03:14:35;;;;;;;18.38;8.23;;;;;;;;;;5001425;28;20093;-74
2021/12/20 03:17:01;;;;;;;24.40;12.23;;;;;;;;;;5001211;28;20037;-74
2021/12/20 03:19:27;;;;;;;21.90;10.57;;;;;;;;;;5000136;28;20037;-74
2021/12/20 03:21:53;;;;;;;18.02;8.85;;;;;;;;;;5000516;28;20494;-74
2021/12/20 03:24:19;;;;;;;17.42;7.45;;;;;;;;;;5000115;28;20034;-74
2021/12/20 03:26:44;;;;;;;18.52;8.95;;;;;;;;;;5001105;28;20038;-73
2021/12/20 03:29:11;;;;;;;20.80;10.13;;;;;;;;;;4983989;28;20034;-73
2021/12/20 03:31:36;;;;;;;18.73;10.60;;;;;;;;;;4998933;28;20141;-74
2021/12/20 03:34:02;;;;;;;14.48;6.78;;;;;;;;;;5001570;28;20216;-73
2021/12/20 03:36:28;;;;;;;25.45;9.73;;;;;;;;;;5001108;28;20107;-74
2021/12/20 03:38:53;;;;;;;7.35;4.35;;;;;;;;;;5002448;28;20853;-74
2021/12/20 03:41:20;;;;;;;12.60;6.32;;;;;;;;;;5005154;28;20128;-74
2021/12/20 03:43:45;;;;;;;11.93;6.00;;;;;;;;;;5004097;28;20089;-74
2021/12/20 03:46:11;;;;;;;21.63;8.93;;;;;;;;;;5003627;28;20442;-73
2021/12/20 03:48:36;;;;;;;21.42;10.52;;;;;;;;;;5003461;28;20037;-73
2021/12/20 03:51:03;;;;;;;19.52;8.50;;;;;;;;;;5003423;28;20104;-73
2021/12/20 03:53:31;;;;;;;19.23;9.13;;;;;;;;;;5002600;28;20168;-73
2021/12/20 03:55:57;;;;;;;21.35;10.02;;;;;;;;;;5003338;28;20030;-73
2021/12/20 03:58:22;;;;;;;24.70;10.60;;;;;;;;;;4987201;28;20033;-74
2021/12/20 04:00:49;;;;;;;22.55;10.77;;;;;;;;;;5002926;28;20036;-74
2021/12/20 04:03:15;;;;;;;20.38;10.68;;;;;;;;;;5003339;28;20042;-73
2021/12/20 04:05:41;;;;;;;17.52;6.35;;;;;;;;;;5002098;28;20116;-73
2021/12/20 04:08:07;;;;;;;11.32;6.65;;;;;;;;;;5003128;28;20065;-73
2021/12/20 04:10:33;;;;;;;11.98;6.60;;;;;;;;;;5003290;28;20072;-73
2021/12/20 04:12:59;;;;;;;18.15;8.02;;;;;;;;;;4987007;28;20029;-73
2021/12/20 04:15:24;;;;;;;23.65;11.15;;;;;;;;;;5003727;28;20033;-74
2021/12/20 04:17:50;;;;;;;12.35;6.05;;;;;;;;;;4995979;28;20026;-74
2021/12/20 04:20:15;;;;;;;19.88;9.75;;;;;;;;;;4986655;28;20095;-73
2021/12/20 04:22:41;;;;;;;17.45;8.98;;;;;;;;;;5002963;28;20045;-73
2021/12/20 04:25:07;;;;;;;14.50;8.57;;;;;;;;;;5004500;28;20095;-74
2021/12/20 04:27:33;;;;;;;12.15;6.30;;;;;;;;;;5001901;28;20430;-73
2021/12/20 04:29:58;;;;;;;12.77;7.10;;;;;;;;;;4986504;28;20037;-73
2021/12/20 04:32:24;;;;;;;14.45;7.03;;;;;;;;;;5002642;28;20062;-73
2021/12/20 04:34:49;;;;;;;6.60;5.40;;;;;;;;;;4986373;28;20034;-73
2021/12/20 04:37:15;;;;;;;17.13;9.10;;;;;;;;;;5001884;28;20038;-73
2021/12/20 04:39:40;;;;;;;19.70;9.15;;;;;;;;;;5003768;28;20069;-73
2021/12/20 04:42:08;;;;;;;15.07;8.05;;;;;;;;;;5000024;28;20096;-73
2021/12/20 04:44:36;;;;;;;7.28;4.05;;;;;;;;;;4985982;28;20038;-73
2021/12/20 04:47:02;;;;;;;12.25;6.35;;;;;;;;;;5002221;28;20037;-74
2021/12/20 04:49:27;;;;;;;17.52;7.93;;;;;;;;;;4983754;28;20034;-73
2021/12/20 04:51:54;;;;;;;19.00;7.93;;;;;;;;;;5001773;28;20112;-73
2021/12/20 04:54:21;;;;;;;23.63;10.15;;;;;;;;;;5002639;28;20032;-73
2021/12/20 04:56:47;;;;;;;27.23;11.15;;;;;;;;;;5002193;28;20513;-73
2021/12/20 04:59:12;;;;;;;21.63;10.35;;;;;;;;;;5001696;28;20038;-73
2021/12/20 05:01:38;;;;;;;26.77;11.15;;;;;;;;;;5003143;28;20072;-73
2021/12/20 05:04:03;;;;;;;19.48;10.73;;;;;;;;;;5003519;28;20038;-73
2021/12/20 05:06:31;;;;;;;22.73;11.13;;;;;;;;;;4985722;28;20132;-74
2021/12/20 05:08:57;;;;;;;9.63;4.88;;;;;;;;;;4985934;28;21157;-74
2021/12/20 05:11:24;;;;;;;13.02;6.82;;;;;;;;;;5000873;28;20037;-74
2021/12/20 05:13:49;;;;;;;24.08;8.95;;;;;;;;;;5003427;28;20036;-74
2021/12/20 05:16:15;;;;;;;25.80;12.25;;;;;;;;;;5003570;28;20059;-74
2021/12/20 05:18:40;;;;;;;24.90;10.15;;;;;;;;;;5002207;28;20118;-73
2021/12/20 05:21:06;;;;;;;27.40;12.30;;;;;;;;;;4990674;28;20434;-74
2021/12/20 05:23:31;;;;;;;20.27;10.15;;;;;;;;;;4985622;28;20034;-73
2021/12/20 05:25:57;;;;;;;26.98;12.13;;;;;;;;;;5003169;28;20029;-73
2021/12/20 05:28:23;;;;;;;20.63;10.40;;;;;;;;;;5001671;28;20403;-74
2021/12/20 05:30:52;;;;;;;18.85;9.52;;;;;;;;;;4984778;28;20034;-73
2021/12/20 05:33:17;;;;;;;24.10;11.48;;;;;;;;;;4983801;28;20406;-73
2021/12/20 05:35:43;;;;;;;15.48;5.45;;;;;;;;;;5002224;28;20038;-74
2021/12/20 05:38:08;;;;;;;27.77;11.48;;;;;;;;;;5001126;28;20368;-74
2021/12/20 05:40:35;;;;;;;14.40;7.03;;;;;;;;;;5002091;28;20112;-73
2021/12/20 05:43:01;;;;;;;21.02;8.30;;;;;;;;;;4984915;28;20038;-74
2021/12/20 05:45:27;;;;;;;19.80;8.90;;;;;;;;;;5001470;28;20046;-74
2021/12/20 05:47:52;;;;;;;11.48;6.13;;;;;;;;;;5000951;28;20056;-74
2021/12/20 05:50:20;;;;;;;15.10;8.25;;;;;;;;;;5001119;28;20506;-74
2021/12/20 05:52:46;;;;;;;19.17;9.80;;;;;;;;;;5000768;28;20034;-74
2021/12/20 05:55:12;;;;;;;22.85;9.55;;;;;;;;;;5001405;28;20112;-75
2021/12/20 05:57:38;;;;;;;16.10;8.35;;;;;;;;;;5000519;28;20141;-74
2021/12/20 06:00:07;;;;;;;20.90;9.80;;;;;;;;;;4984323;28;20029;-72
2021/12/20 06:02:40;;;;;;;11.98;6.07;;;;;;;;;;5001231;28;20100;-73
2021/12/20 06:05:06;;;;;;;15.40;7.90;;;;;;;;;;5002457;28;20033;-74
2021/12/20 06:07:32;;;;;;;12.57;6.75;;;;;;;;;;4999834;28;20592;-74
2021/12/20 06:09:57;;;;;;;16.73;8.55;;;;;;;;;;5002208;28;20026;-74
2021/12/20 06:12:23;;;;;;;12.68;6.85;;;;;;;;;;5001183;28;20410;-73
2021/12/20 06:14:48;;;;;;;22.77;9.77;;;;;;;;;;5001810;28;20030;-74
2021/12/20 06:17:14;;;;;;;18.45;9.93;;;;;;;;;;4997443;28;20660;-75
2021/12/20 06:19:40;;;;;;;13.80;7.88;;;;;;;;;;4997715;28;20169;-75
2021/12/20 06:22:07;;;;;;;21.00;9.88;;;;;;;;;;4981602;28;20371;-75
2021/12/20 06:24:33;;;;;;;22.35;10.05;;;;;;;;;;4981128;28;20129;-75
2021/12/20 06:26:59;;;;;;;20.63;9.30;;;;;;;;;;4997866;28;20117;-75
2021/12/20 06:29:25;;;;;;;20.65;9.95;;;;;;;;;;4996833;28;20037;-76
2021/12/20 06:31:51;;;;;;;17.63;9.30;;;;;;;;;;4998987;28;20034;-75
2021/12/20 06:34:16;;;;;;;25.70;11.43;;;;;;;;;;4998763;28;20049;-75
2021/12/20 06:36:42;;;;;;;21.48;10.75;;;;;;;;;;4983105;28;20594;-75
2021/12/20 06:39:07;;;;;;;25.90;11.90;;;;;;;;;;5001194;28;20040;-75
2021/12/20 06:41:33;;;;;;;26.50;11.02;;;;;;;;;;5000384;28;20029;-75
2021/12/20 06:43:58;;;;;;;21.38;10.88;;;;;;;;;;5000503;28;20041;-75
2021/12/20 06:46:24;;;;;;;28.33;12.25;;;;;;;;;;5000445;28;20036;-75
2021/12/20 06:48:50;;;;;;;23.67;10.93;;;;;;;;;;5001605;28;20073;-75
2021/12/20 06:51:16;;;;;;;22.90;10.50;;;;;;;;;;4999725;28;20232;-75
2021/12/20 06:53:41;;;;;;;20.85;9.32;;;;;;;;;;4997298;28;20113;-75
2021/12/20 06:56:07;;;;;;;23.98;10.27;;;;;;;;;;5001628;28;20061;-73
2021/12/20 06:58:32;;;;;;;20.98;9.65;;;;;;;;;;5000514;28;20196;-72
2021/12/20 07:00:57;;;;;;;16.25;7.75;;;;;;;;;;4999990;28;20046;-73
2021/12/20 07:03:23;;;;;;;20.48;9.75;;;;;;;;;;5000172;28;20034;-74
2021/12/20 07:05:49;;;;;;;20.75;10.57;;;;;;;;;;4999830;28;20041;-72
2021/12/20 07:08:15;;;;;;;24.45;10.75;;;;;;;;;;5001196;28;20042;-75
2021/12/20 07:10:41;;;;;;;17.35;8.55;;;;;;;;;;5001599;28;20038;-76
2021/12/20 07:13:07;;;;;;;22.75;10.13;;;;;;;;;;4983870;28;20029;-76
2021/12/20 07:15:32;;;;;;;19.08;10.27;;;;;;;;;;5003805;28;20149;-76
2021/12/20 07:17:58;;;;;;;18.80;9.23;;;;;;;;;;5005727;28;20124;-76
2021/12/20 07:20:24;;;;;;;21.45;9.90;;;;;;;;;;5005265;28;20091;-74
2021/12/20 07:22:50;;;;;;;24.30;10.50;;;;;;;;;;5004449;28;20037;-75
2021/12/20 07:25:15;;;;;;;22.33;10.38;;;;;;;;;;5002989;28;20037;-74
2021/12/20 07:27:41;;;;;;;23.25;9.93;;;;;;;;;;5004998;28;20037;-75
2021/12/20 07:30:07;;;;;;;21.48;9.80;;;;;;;;;;5003342;28;20353;-74
2021/12/20 07:32:33;;;;;;;21.40;10.65;;;;;;;;;;4987220;28;20037;-74
2021/12/20 07:34:58;;;;;;;23.70;11.68;;;;;;;;;;4986304;28;20038;-75
2021/12/20 07:37:26;;;;;;;19.85;10.50;;;;;;;;;;5003348;28;20060;-75
2021/12/20 07:39:52;;;;;;;17.73;9.32;;;;;;;;;;4987804;28;20549;-74
2021/12/20 07:42:18;;;;;;;22.67;10.55;;;;;;;;;;5004150;28;20029;-74
2021/12/20 07:44:44;;;;;;;22.05;10.95;;;;;;;;;;5004650;28;20052;-74
2021/12/20 07:47:10;;;;;;;19.80;9.18;;;;;;;;;;5004505;28;20034;-73
2021/12/20 07:49:35;;;;;;;20.45;10.15;;;;;;;;;;4987473;28;20104;-72
2021/12/20 07:52:01;;;;;;;22.55;9.90;;;;;;;;;;5003826;28;20091;-73
2021/12/20 07:54:27;;;;;;;22.70;10.55;;;;;;;;;;4986858;28;20036;-73
2021/12/20 07:56:52;;;;;;;18.50;9.88;;;;;;;;;;5003775;28;20026;-76
2021/12/20 07:59:18;;;;;;;24.33;10.77;;;;;;;;;;5004954;28;20204;-75
2021/12/20 08:01:43;;;;;;;21.80;9.38;;;;;;;;;;5003725;28;20041;-76
2021/12/20 08:04:09;;;;;;;20.60;9.93;;;;;;;;;;5003363;28;20038;-76
2021/12/20 08:06:35;;;;;;;21.98;10.20;;;;;;;;;;4986319;28;20037;-77
2021/12/20 08:09:01;;;;;;;22.45;10.30;;;;;;;;;;5003251;28;20371;-76
2021/12/20 08:11:26;;;;;;;22.75;9.20;;;;;;;;;;5002724;28;20065;-74
2021/12/20 08:13:52;;;;;;;22.17;10.88;;;;;;;;;;5003825;28;20034;-75
2021/12/20 08:16:19;;;;;;;22.38;9.93;;;;;;;;;;5002857;28;20030;-75
2021/12/20 08:18:46;;;;;;;17.70;8.80;;;;;;;;;;5001157;28;20398;-75
2021/12/20 08:21:13;;;;;;;16.92;8.02;;;;;;;;;;5002222;28;20061;-76
2021/12/20 08:23:40;;;;;;;19.95;9.45;;;;;;;;;;5003400;28;20045;-78
2021/12/20 08:26:06;;;;;;;16.90;8.65;;;;;;;;;;5004222;28;20112;-77
2021/12/20 08:28:32;;;;;;;20.52;9.82;;;;;;;;;;4985780;28;20042;-77
2021/12/20 08:30:57;;;;;;;18.42;8.85;;;;;;;;;;5003329;28;20088;-76
2021/12/20 08:33:23;;;;;;;18.92;9.50;;;;;;;;;;5003922;28;20092;-79
2021/12/20 08:35:49;;;;;;;18.38;9.75;;;;;;;;;;5004445;28;20088;-77
2021/12/20 08:38:19;;;;;;;18.08;8.93;;;;;;;;;;5002683;28;20038;-77
2021/12/20 08:40:46;;;;;;;13.00;6.30;;;;;;;;;;5002442;28;20033;-78
2021/12/20 08:43:11;;;;;;;24.05;9.13;;;;;;;;;;5003120;28;20044;-77
2021/12/20 08:45:37;;;;;;;26.90;9.18;;;;;;;;;;5002144;28;20042;-77
2021/12/20 08:48:02;;;;;;;22.60;10.55;;;;;;;;;;5002712;28;20140;-78
2021/12/20 08:50:28;;;;;;;23.35;10.80;;;;;;;;;;4995124;28;20046;-77
2021/12/20 08:52:53;;;;;;;21.60;10.35;;;;;;;;;;5003055;28;20053;-76
2021/12/20 08:55:19;;;;;;;24.30;10.90;;;;;;;;;;5006350;28;20493;-76
2021/12/20 08:57:45;;;;;;;23.63;11.65;;;;;;;;;;5003663;28;20033;-75
2021/12/20 09:00:17;;;;;;;24.25;11.27;;;;;;;;;;5004527;28;20048;-77
2021/12/20 09:02:43;;;;;;;18.23;10.75;;;;;;;;;;5001319;28;20129;-75
2021/12/20 09:05:08;;;;;;;15.80;8.18;;;;;;;;;;5002049;28;20129;-76
2021/12/20 09:07:34;;;;;;;17.73;8.50;;;;;;;;;;5003689;28;20033;-77
2021/12/20 09:09:59;;;;;;;17.60;8.77;;;;;;;;;;5003250;28;20037;-76
2021/12/20 09:12:25;;;;;;;20.27;9.02;;;;;;;;;;4984579;28;20053;-76
2021/12/20 09:14:50;;;;;;;22.10;9.55;;;;;;;;;;5003515;28;20073;-76
2021/12/20 09:17:17;;;;;;;22.40;10.70;;;;;;;;;;5002856;28;20483;-75
2021/12/20 09:19:43;;;;;;;23.27;10.38;;;;;;;;;;5003441;28;20037;-75
2021/12/20 09:22:11;;;;;;;17.75;7.70;;;;;;;;;;4985301;28;20030;-76
2021/12/20 09:24:38;;;;;;;21.20;10.35;;;;;;;;;;4984725;28;20034;-74
2021/12/20 09:27:04;;;;;;;23.40;10.30;;;;;;;;;;5003051;28;20154;-74
2021/12/20 09:29:31;;;;;;;17.23;9.13;;;;;;;;;;5003574;28;20030;-75
2021/12/20 09:31:57;;;;;;;23.42;10.48;;;;;;;;;;5003421;28;20068;-77
2021/12/20 09:34:23;;;;;;;24.10;10.95;;;;;;;;;;5002221;28;20479;-76
2021/12/20 09:36:48;;;;;;;20.88;10.10;;;;;;;;;;5001933;28;20034;-76
2021/12/20 09:39:16;;;;;;;20.10;11.05;;;;;;;;;;4996184;28;20026;-77
2021/12/20 09:44:09;;;;;;;19.10;8.48;;;;;;;;;;5001646;28;20041;-76
2021/12/20 09:46:35;;;;;;;19.23;8.65;;;;;;;;;;5002434;28;20038;-75
2021/12/20 09:49:02;;;;;;;15.85;8.13;;;;;;;;;;5003945;28;20030;-75
2021/12/20 09:51:27;;;;;;;21.05;9.45;;;;;;;;;;5002362;28;20034;-75
2021/12/20 09:53:55;;;;;;;19.08;9.57;;;;;;;;;;5003060;28;20048;-75
2021/12/20 09:56:23;;;;;;;21.05;10.52;;;;;;;;;;5000304;28;20048;-76
2021/12/20 09:58:51;;;;;;;23.48;10.70;;;;;;;;;;5000598;28;20038;-76
2021/12/20 10:01:19;;;;;;;19.25;9.10;;;;;;;;;;5001735;28;20420;-75
2021/12/20 10:03:46;;;;;;;20.55;10.10;;;;;;;;;;5002640;28;20053;-75
2021/12/20 10:06:12;;;;;;;16.77;8.93;;;;;;;;;;5000824;28;20042;-76
2021/12/20 10:08:48;;;;;;;22.35;9.40;;;;;;;;;;5001255;28;20151;-76
2021/12/20 10:11:22;;;;;;;15.35;7.60;;;;;;;;;;4984577;28;21051;-75
2021/12/20 10:13:48;;;;;;;10.15;6.13;;;;;;;;;;5002377;28;20593;-76
2021/12/20 10:16:20;;;;;;;20.55;9.48;;;;;;;;;;5000854;28;20045;-77
2021/12/20 10:18:46;;;;;;;19.52;10.05;;;;;;;;;;5001485;28;20488;-76
2021/12/20 10:21:12;;;;;;;19.80;10.15;;;;;;;;;;5000666;28;20049;-74
2021/12/20 10:23:41;;;;;;;15.30;7.90;;;;;;;;;;5002076;28;20038;-76
2021/12/20 10:26:14;;;;;;;21.05;10.75;;;;;;;;;;5002429;28;20499;-76
2021/12/20 10:28:41;;;;;;;19.10;9.63;;;;;;;;;;5000262;28;20038;-76
2021/12/20 10:31:16;;;;;;;20.02;10.55;;;;;;;;;;5000657;28;20303;-74
2021/12/20 10:33:51;;;;;;;23.33;9.85;;;;;;;;;;5000355;28;20048;-77
2021/12/20 10:36:17;;;;;;;23.08;11.55;;;;;;;;;;5002098;28;20088;-76
2021/12/20 10:38:45;;;;;;;23.75;11.15;;;;;;;;;;5000318;28;20128;-76
2021/12/20 10:41:27;;;;;;;21.70;10.95;;;;;;;;;;5000703;28;20034;-76
2021/12/20 10:43:58;;;;;;;24.88;11.85;;;;;;;;;;5000163;28;20044;-75
2021/12/20 10:46:35;;;;;;;24.60;10.85;;;;;;;;;;4984135;28;20029;-75
2021/12/20 10:49:06;;;;;;;18.35;10.23;;;;;;;;;;4983789;28;20064;-75
2021/12/20 10:51:40;;;;;;;19.80;10.83;;;;;;;;;;4999142;28;20038;-77
2021/12/20 10:54:12;;;;;;;22.75;11.15;;;;;;;;;;5002256;28;20285;-77
2021/12/20 10:56:46;;;;;;;20.33;9.82;;;;;;;;;;5000742;28;20854;-75
2021/12/20 10:59:12;;;;;;;20.88;10.85;;;;;;;;;;4983621;28;20502;-74
2021/12/20 11:04:19;;;;;;;21.17;10.13;;;;;;;;;;4999554;28;20042;-77
2021/12/20 11:09:17;;;;;;;23.98;11.23;;;;;;;;;;5000155;28;20810;-77
2021/12/20 11:11:58;;;;;;;25.77;11.52;;;;;;;;;;5002161;28;20052;-75
2021/12/20 11:14:33;;;;;;;25.45;11.57;;;;;;;;;;4985511;28;20152;-80
2021/12/20 11:17:00;;;;;;;24.00;11.13;;;;;;;;;;4981272;28;20026;-79
2021/12/20 11:19:27;;;;;;;22.55;9.98;;;;;;;;;;5000216;28;20113;-78
2021/12/20 11:21:55;;;;;;;21.05;9.52;;;;;;;;;;4998726;28;20038;-79
2021/12/20 11:24:33;;;;;;;17.70;10.13;;;;;;;;;;4997264;28;20073;-79
2021/12/20 11:27:03;;;;;;;17.77;9.15;;;;;;;;;;4998991;28;20469;-78
2021/12/20 11:29:28;;;;;;;19.65;9.35;;;;;;;;;;4982657;28;20053;-78
2021/12/20 11:31:56;;;;;;;24.38;10.77;;;;;;;;;;5001188;28;20684;-78
2021/12/20 11:34:22;;;;;;;19.95;10.27;;;;;;;;;;5000780;28;20544;-79
2021/12/20 11:36:48;;;;;;;21.95;9.95;;;;;;;;;;5001713;28;20030;-79
2021/12/20 11:39:13;;;;;;;17.38;8.82;;;;;;;;;;5000988;28;20059;-78
2021/12/20 11:41:39;;;;;;;21.30;9.88;;;;;;;;;;5000470;28;20137;-78
2021/12/20 11:44:11;;;;;;;21.55;9.45;;;;;;;;;;5001979;28;20041;-78
2021/12/20 11:46:44;;;;;;;22.40;9.65;;;;;;;;;;5002080;28;20049;-78
2021/12/20 11:49:10;;;;;;;21.58;9.93;;;;;;;;;;5001459;28;20041;-79
2021/12/20 11:51:57;;;;;;;20.13;9.70;;;;;;;;;;5003769;28;20553;-80
2021/12/20 11:54:36;;;;;;;18.08;9.48;;;;;;;;;;5007173;28;20553;-78
2021/12/20 11:57:03;;;;;;;15.85;9.45;;;;;;;;;;5000731;28;20029;-75
2021/12/20 11:59:51;;;;;;;20.35;9.55;;;;;;;;;;5000432;28;20091;-78
2021/12/20 12:02:28;;;;;;;17.25;8.68;;;;;;;;;;5003580;28;20064;-76
2021/12/20 12:05:05;;;;;;;17.73;9.10;;;;;;;;;;5019624;28;20049;-77
2021/12/20 12:07:37;;;;;;;16.20;9.00;;;;;;;;;;4986375;28;20033;-74
2021/12/20 12:10:10;;;;;;;15.32;9.10;;;;;;;;;;5002061;28;20088;-76
2021/12/20 12:12:43;;;;;;;17.17;8.50;;;;;;;;;;5004055;28;20049;-75
2021/12/20 12:15:32;;;;;;;16.08;8.70;;;;;;;;;;5002968;28;21019;-76
2021/12/20 12:18:03;;;;;;;14.57;9.20;;;;;;;;;;5003574;28;20038;-75
2021/12/20 12:20:39;;;;;;;18.77;9.63;;;;;;;;;;5003051;28;20588;-77
2021/12/20 12:23:09;;;;;;;14.85;8.73;;;;;;;;;;5003190;28;20065;-73
2021/12/20 12:25:37;;;;;;;14.18;7.97;;;;;;;;;;5002594;28;20029;-75
2021/12/20 12:28:03;;;;;;;12.35;8.07;;;;;;;;;;5003037;28;20041;-75
2021/12/20 12:30:30;;;;;;;17.58;8.23;;;;;;;;;;5001516;28;20057;-76
2021/12/20 12:32:56;;;;;;;12.20;7.13;;;;;;;;;;5002641;28;20037;-75
2021/12/20 12:35:37;;;;;;;14.38;7.70;;;;;;;;;;5003758;28;20044;-74
2021/12/20 12:38:18;;;;;;;14.27;6.90;;;;;;;;;;5003110;28;20030;-77
2021/12/20 12:40:48;;;;;;;12.63;6.85;;;;;;;;;;5003415;28;20433;-74
2021/12/20 12:43:21;;;;;;;15.48;8.20;;;;;;;;;;5000898;28;20058;-74
2021/12/20 12:45:51;;;;;;;13.82;7.43;;;;;;;;;;5001970;28;20044;-74
2021/12/20 12:48:40;;;;;;;12.00;6.93;;;;;;;;;;5000785;28;20038;-74
2021/12/20 12:51:13;;;;;;;12.57;7.32;;;;;;;;;;5000607;28;20034;-76
2021/12/20 12:53:43;;;;;;;17.25;7.95;;;;;;;;;;4987154;28;20100;-77
2021/12/20 12:56:27;;;;;;;17.55;7.88;;;;;;;;;;5002341;28;20044;-75
2021/12/20 12:59:11;;;;;;;14.70;6.50;;;;;;;;;;5008638;28;20030;-75
2021/12/20 13:02:19;;;;;;;12.77;6.43;;;;;;;;;;5019022;28;20534;-75
2021/12/20 13:05:06;;;;;;;12.43;6.30;;;;;;;;;;4925665;28;20069;-76
2021/12/20 13:07:33;;;;;;;11.57;6.53;;;;;;;;;;5002950;28;20054;-76
2021/12/20 13:10:03;;;;;;;10.63;5.80;;;;;;;;;;5003219;28;20124;-75
2021/12/20 13:17:44;;;;;;;14.32;6.68;;;;;;;;;;5001368;28;20053;-77
2021/12/20 13:20:28;;;;;;;14.90;7.07;;;;;;;;;;5002181;28;20041;-73
2021/12/20 13:23:11;;;;;;;13.52;6.97;;;;;;;;;;5001567;28;20049;-74
2021/12/20 13:25:42;;;;;;;;;;;;;;;;;;4997005;28;20158;-74
2021/12/20 13:28:18;;;;;;;11.95;6.32;;;;;;;;;;4998546;28;19975;-74
2021/12/20 13:30:50;;;;;;;15.68;7.15;;;;;;;;;;4998294;28;20050;-74
2021/12/20 13:33:18;;;;;;;14.25;7.85;;;;;;;;;;4998372;28;20049;-74
2021/12/20 13:35:45;;;;;;;11.07;6.90;;;;;;;;;;4998763;28;20042;-74
2021/12/20 13:38:13;;;;;;;28.08;15.43;;;;;;;;;;4997875;28;20041;-74
2021/12/20 13:40:59;;;;;;;20.08;8.80;;;;;;;;;;4999308;28;20502;-72
2021/12/20 13:43:35;;;;;;;11.98;7.30;;;;;;;;;;4999655;28;20511;-74
2021/12/20 13:46:02;;;;;;;14.25;7.63;;;;;;;;;;5000640;28;20150;-75
2021/12/20 13:48:28;;;;;;;12.55;7.07;;;;;;;;;;4999991;28;20034;-74
2021/12/20 13:50:54;;;;;;;17.63;7.63;;;;;;;;;;4983751;28;20072;-75
2021/12/20 13:53:33;;;;;;;14.15;7.95;;;;;;;;;;4983700;28;20062;-74
2021/12/20 13:56:01;;;;;;;18.10;11.60;;;;;;;;;;5001844;28;20079;-75
2021/12/20 13:58:28;;;;;;;14.48;7.65;;;;;;;;;;4999136;28;20046;-76
2021/12/20 14:00:55;;;;;;;14.30;7.82;;;;;;;;;;4999623;28;20029;-77
2021/12/20 14:03:20;;;;;;;12.40;7.32;;;;;;;;;;5000451;28;20073;-76
2021/12/20 14:05:47;;;;;;;17.05;8.45;;;;;;;;;;4999898;28;20080;-75
2021/12/20 14:08:23;;;;;;;14.07;7.97;;;;;;;;;;5000768;28;20037;-75
2021/12/20 14:10:52;;;;;;;18.95;8.60;;;;;;;;;;5000435;28;20487;-75
2021/12/20 14:13:24;;;;;;;14.45;8.10;;;;;;;;;;5000920;28;20518;-77
2021/12/20 14:16:04;;;;;;;16.05;7.82;;;;;;;;;;5001038;28;20072;-75
2021/12/20 14:18:36;;;;;;;17.25;8.65;;;;;;;;;;4999612;28;20109;-76
2021/12/20 14:21:03;;;;;;;21.63;9.85;;;;;;;;;;5000611;28;20095;-76
2021/12/20 14:23:35;;;;;;;17.50;7.95;;;;;;;;;;4988607;28;20034;-75
2021/12/20 14:26:11;;;;;;;17.98;8.05;;;;;;;;;;4999357;28;20290;-74
2021/12/20 14:28:47;;;;;;;15.45;7.85;;;;;;;;;;5001439;28;20526;-75
2021/12/20 14:31:27;;;;;;;19.58;7.95;;;;;;;;;;4968527;28;20037;-76
2021/12/20 14:33:55;;;;;;;16.33;7.45;;;;;;;;;;5000408;28;20473;-75
2021/12/20 14:36:22;;;;;;;16.92;8.10;;;;;;;;;;5002389;28;20504;-77
2021/12/20 14:38:51;;;;;;;13.35;7.20;;;;;;;;;;5000857;28;20044;-75
2021/12/20 14:41:33;;;;;;;13.57;7.93;;;;;;;;;;5002185;28;20030;-78
2021/12/20 14:44:24;;;;;;;14.98;8.00;;;;;;;;;;5001427;28;20034;-75
2021/12/20 14:49:30;;;;;;;19.90;9.60;;;;;;;;;;5001710;28;20037;-73
2021/12/20 14:52:06;;;;;;;20.05;8.75;;;;;;;;;;5001742;28;20037;-74
2021/12/20 14:54:40;;;;;;;19.88;8.45;;;;;;;;;;5000844;28;20038;-75
2021/12/20 14:57:15;;;;;;;18.45;9.50;;;;;;;;;;4983915;28;20116;-75